sensor_id;sensor_type;location;lat;lon;timestamp;temperature;humidity
22212;DHT22;11275;52.488;13.462;2023-03-20T00:02:47;14.10;99.90
22212;DHT22;11275;52.488;13.462;2023-03-20T00:05:19;14.00;99.90
22212;DHT22;11275;52.488;13.462;2023-03-20T00:07:46;14.00;99.90
22212;DHT22;11275;52.488;13.462;2023-03-20T00:10:12;14.00;99.90
22212;DHT22;11275;52.488;13.462;2023-03-20T00:12:37;14.00;99.90
22212;DHT22;11275;52.488;13.462;2023-03-20T00:15:04;13.90;99.90
22212;DHT22;11275;52.488;13.462;2023-03-20T00:17:30;13.90;99.90
22212;DHT22;11275;52.488;13.462;2023-03-20T00:19:56;13.90;99.90
22212;DHT22;11275;52.488;13.462;2023-03-20T00:22:21;13.90;99.90
22212;DHT22;11275;52.488;13.462;2023-03-20T00:24:47;13.80;99.90
22212;DHT22;11275;52.488;13.462;2023-03-20T00:27:13;13.80;99.90
22212;DHT22;11275;52.488;13.462;2023-03-20T00:29:39;13.80;99.90
22212;DHT22;11275;52.488;13.462;2023-03-20T00:32:08;13.80;99.90
22212;DHT22;11275;52.488;13.462;2023-03-20T00:34:36;13.80;99.90
22212;DHT22;11275;52.488;13.462;2023-03-20T00:37:02;13.80;99.90
22212;DHT22;11275;52.488;13.462;2023-03-20T00:39:28;13.70;99.90
22212;DHT22;11275;52.488;13.462;2023-03-20T00:41:57;13.60;99.90
22212;DHT22;11275;52.488;13.462;2023-03-20T00:44:24;13.60;99.90
22212;DHT22;11275;52.488;13.462;2023-03-20T00:46:52;13.50;99.90
22212;DHT22;11275;52.488;13.462;2023-03-20T00:49:19;13.50;99.90
22212;DHT22;11275;52.488;13.462;2023-03-20T00:51:47;13.50;99.90
22212;DHT22;11275;52.488;13.462;2023-03-20T00:54:14;13.50;99.90
22212;DHT22;11275;52.488;13.462;2023-03-20T00:56:49;13.40;99.90
22212;DHT22;11275;52.488;13.462;2023-03-20T00:59:19;13.40;99.90
22212;DHT22;11275;52.488;13.462;2023-03-20T01:01:45;13.40;99.90
22212;DHT22;11275;52.488;13.462;2023-03-20T01:04:15;13.30;99.90
22212;DHT22;11275;52.488;13.462;2023-03-20T01:06:41;13.30;99.90
22212;DHT22;11275;52.488;13.462;2023-03-20T01:09:07;13.30;99.90
22212;DHT22;11275;52.488;13.462;2023-03-20T01:11:34;13.20;99.90
22212;DHT22;11275;52.488;13.462;2023-03-20T01:14:00;13.20;99.90
22212;DHT22;11275;52.488;13.462;2023-03-20T01:16:26;13.10;99.90
22212;DHT22;11275;52.488;13.462;2023-03-20T01:18:51;13.10;99.90
22212;DHT22;11275;52.488;13.462;2023-03-20T01:21:17;13.10;99.90
22212;DHT22;11275;52.488;13.462;2023-03-20T01:23:44;13.00;99.90
22212;DHT22;11275;52.488;13.462;2023-03-20T01:28:54;13.00;99.90
22212;DHT22;11275;52.488;13.462;2023-03-20T01:31:19;13.00;99.90
22212;DHT22;11275;52.488;13.462;2023-03-20T01:33:45;13.00;99.90
22212;DHT22;11275;52.488;13.462;2023-03-20T01:36:14;13.00;99.90
22212;DHT22;11275;52.488;13.462;2023-03-20T01:38:41;13.10;99.90
22212;DHT22;11275;52.488;13.462;2023-03-20T01:41:07;13.00;99.90
22212;DHT22;11275;52.488;13.462;2023-03-20T01:43:34;13.00;99.90
22212;DHT22;11275;52.488;13.462;2023-03-20T01:46:02;12.90;99.90
22212;DHT22;11275;52.488;13.462;2023-03-20T01:51:18;12.90;99.90
22212;DHT22;11275;52.488;13.462;2023-03-20T01:53:44;12.90;99.90
22212;DHT22;11275;52.488;13.462;2023-03-20T01:56:11;12.90;99.90
22212;DHT22;11275;52.488;13.462;2023-03-20T01:58:38;12.90;99.90
22212;DHT22;11275;52.488;13.462;2023-03-20T02:01:05;12.90;99.90
22212;DHT22;11275;52.488;13.462;2023-03-20T02:03:32;12.90;99.90
22212;DHT22;11275;52.488;13.462;2023-03-20T02:05:58;12.80;99.90
22212;DHT22;11275;52.488;13.462;2023-03-20T02:08:30;12.90;99.90
22212;DHT22;11275;52.488;13.462;2023-03-20T02:10:57;12.80;99.90
22212;DHT22;11275;52.488;13.462;2023-03-20T02:13:25;12.90;99.90
22212;DHT22;11275;52.488;13.462;2023-03-20T02:15:56;12.80;99.90
22212;DHT22;11275;52.488;13.462;2023-03-20T02:18:22;12.90;99.90
22212;DHT22;11275;52.488;13.462;2023-03-20T02:28:57;12.80;99.90
22212;DHT22;11275;52.488;13.462;2023-03-20T02:31:35;12.80;99.90
22212;DHT22;11275;52.488;13.462;2023-03-20T02:36:42;12.80;99.90
22212;DHT22;11275;52.488;13.462;2023-03-20T02:49:22;12.80;99.90
22212;DHT22;11275;52.488;13.462;2023-03-20T02:57:09;12.80;99.90
22212;DHT22;11275;52.488;13.462;2023-03-20T03:02:08;12.80;99.90
22212;DHT22;11275;52.488;13.462;2023-03-20T03:04:37;12.80;99.90
22212;DHT22;11275;52.488;13.462;2023-03-20T03:07:03;12.90;99.90
22212;DHT22;11275;52.488;13.462;2023-03-20T03:09:32;12.80;99.90
22212;DHT22;11275;52.488;13.462;2023-03-20T03:12:11;12.80;99.90
22212;DHT22;11275;52.488;13.462;2023-03-20T03:14:39;12.90;99.90
22212;DHT22;11275;52.488;13.462;2023-03-20T03:17:06;12.90;99.90
22212;DHT22;11275;52.488;13.462;2023-03-20T03:19:32;12.80;99.90
22212;DHT22;11275;52.488;13.462;2023-03-20T03:21:59;12.90;99.90
22212;DHT22;11275;52.488;13.462;2023-03-20T03:26:54;12.80;99.90
22212;DHT22;11275;52.488;13.462;2023-03-20T03:29:20;12.80;99.90
22212;DHT22;11275;52.488;13.462;2023-03-20T03:31:48;12.70;99.90
22212;DHT22;11275;52.488;13.462;2023-03-20T03:34:15;12.70;99.90
22212;DHT22;11275;52.488;13.462;2023-03-20T03:36:50;12.80;99.90
22212;DHT22;11275;52.488;13.462;2023-03-20T03:39:27;12.80;99.90
22212;DHT22;11275;52.488;13.462;2023-03-20T03:44:34;12.70;99.90
22212;DHT22;11275;52.488;13.462;2023-03-20T03:47:03;12.60;99.90
22212;DHT22;11275;52.488;13.462;2023-03-20T03:49:31;12.60;99.90
22212;DHT22;11275;52.488;13.462;2023-03-20T03:51:59;12.60;99.90
22212;DHT22;11275;52.488;13.462;2023-03-20T03:54:28;12.50;99.90
22212;DHT22;11275;52.488;13.462;2023-03-20T03:56:54;12.50;99.90
22212;DHT22;11275;52.488;13.462;2023-03-20T03:59:25;12.50;99.90
22212;DHT22;11275;52.488;13.462;2023-03-20T04:01:51;12.50;99.90
22212;DHT22;11275;52.488;13.462;2023-03-20T04:04:18;12.50;99.90
22212;DHT22;11275;52.488;13.462;2023-03-20T04:06:45;12.40;99.90
22212;DHT22;11275;52.488;13.462;2023-03-20T04:09:10;12.40;99.90
22212;DHT22;11275;52.488;13.462;2023-03-20T04:11:36;12.40;99.90
22212;DHT22;11275;52.488;13.462;2023-03-20T04:14:01;12.40;99.90
22212;DHT22;11275;52.488;13.462;2023-03-20T04:16:27;12.40;99.90
22212;DHT22;11275;52.488;13.462;2023-03-20T04:18:52;12.40;99.90
22212;DHT22;11275;52.488;13.462;2023-03-20T04:21:19;12.40;99.90
22212;DHT22;11275;52.488;13.462;2023-03-20T04:23:45;12.50;99.90
22212;DHT22;11275;52.488;13.462;2023-03-20T04:26:11;12.50;99.90
22212;DHT22;11275;52.488;13.462;2023-03-20T04:28:36;12.50;99.90
22212;DHT22;11275;52.488;13.462;2023-03-20T04:31:02;12.50;99.90
22212;DHT22;11275;52.488;13.462;2023-03-20T04:33:27;12.50;99.90
22212;DHT22;11275;52.488;13.462;2023-03-20T04:35:53;12.50;99.90
22212;DHT22;11275;52.488;13.462;2023-03-20T04:38:19;12.50;99.90
22212;DHT22;11275;52.488;13.462;2023-03-20T04:40:45;12.40;99.90
22212;DHT22;11275;52.488;13.462;2023-03-20T04:43:11;12.40;99.90
22212;DHT22;11275;52.488;13.462;2023-03-20T04:45:37;12.50;99.90
22212;DHT22;11275;52.488;13.462;2023-03-20T04:48:02;12.40;99.90
22212;DHT22;11275;52.488;13.462;2023-03-20T04:50:28;12.50;99.90
22212;DHT22;11275;52.488;13.462;2023-03-20T04:52:53;12.50;99.90
22212;DHT22;11275;52.488;13.462;2023-03-20T04:55:19;12.50;99.90
22212;DHT22;11275;52.488;13.462;2023-03-20T04:57:46;12.50;99.90
22212;DHT22;11275;52.488;13.462;2023-03-20T05:00:12;12.50;99.90
22212;DHT22;11275;52.488;13.462;2023-03-20T05:02:38;12.50;99.90
22212;DHT22;11275;52.488;13.462;2023-03-20T05:05:03;12.50;99.90
22212;DHT22;11275;52.488;13.462;2023-03-20T05:07:29;12.50;99.90
22212;DHT22;11275;52.488;13.462;2023-03-20T05:09:55;12.50;99.90
22212;DHT22;11275;52.488;13.462;2023-03-20T05:12:21;12.50;99.90
22212;DHT22;11275;52.488;13.462;2023-03-20T05:14:47;12.50;99.90
22212;DHT22;11275;52.488;13.462;2023-03-20T05:17:12;12.40;99.90
22212;DHT22;11275;52.488;13.462;2023-03-20T05:19:38;12.40;99.90
22212;DHT22;11275;52.488;13.462;2023-03-20T05:22:03;12.40;99.90
22212;DHT22;11275;52.488;13.462;2023-03-20T05:24:29;12.40;99.90
22212;DHT22;11275;52.488;13.462;2023-03-20T05:26:55;12.40;99.90
22212;DHT22;11275;52.488;13.462;2023-03-20T05:29:21;12.50;99.90
22212;DHT22;11275;52.488;13.462;2023-03-20T05:31:47;12.50;99.90
22212;DHT22;11275;52.488;13.462;2023-03-20T05:34:13;12.50;99.90
22212;DHT22;11275;52.488;13.462;2023-03-20T05:36:38;12.50;99.90
22212;DHT22;11275;52.488;13.462;2023-03-20T05:39:04;12.40;99.90
22212;DHT22;11275;52.488;13.462;2023-03-20T05:41:30;12.40;99.90
22212;DHT22;11275;52.488;13.462;2023-03-20T05:43:56;12.40;99.90
22212;DHT22;11275;52.488;13.462;2023-03-20T05:46:21;12.40;99.90
22212;DHT22;11275;52.488;13.462;2023-03-20T05:48:47;12.30;99.90
22212;DHT22;11275;52.488;13.462;2023-03-20T05:51:12;12.30;99.90
22212;DHT22;11275;52.488;13.462;2023-03-20T05:53:38;12.40;99.90
22212;DHT22;11275;52.488;13.462;2023-03-20T05:56:04;12.30;99.90
22212;DHT22;11275;52.488;13.462;2023-03-20T05:58:30;12.30;99.90
22212;DHT22;11275;52.488;13.462;2023-03-20T06:00:56;12.40;99.90
22212;DHT22;11275;52.488;13.462;2023-03-20T06:03:21;12.40;99.90
22212;DHT22;11275;52.488;13.462;2023-03-20T06:05:47;12.50;99.90
22212;DHT22;11275;52.488;13.462;2023-03-20T06:08:15;12.50;99.90
22212;DHT22;11275;52.488;13.462;2023-03-20T06:10:40;12.50;99.90
22212;DHT22;11275;52.488;13.462;2023-03-20T06:13:06;12.50;99.90
22212;DHT22;11275;52.488;13.462;2023-03-20T06:15:32;12.60;99.90
22212;DHT22;11275;52.488;13.462;2023-03-20T06:17:57;12.50;99.90
22212;DHT22;11275;52.488;13.462;2023-03-20T06:20:23;12.60;99.90
22212;DHT22;11275;52.488;13.462;2023-03-20T06:22:49;12.60;99.90
22212;DHT22;11275;52.488;13.462;2023-03-20T06:25:15;12.70;99.90
22212;DHT22;11275;52.488;13.462;2023-03-20T06:27:41;12.70;99.90
22212;DHT22;11275;52.488;13.462;2023-03-20T06:30:07;12.70;99.90
22212;DHT22;11275;52.488;13.462;2023-03-20T06:32:32;12.70;99.90
22212;DHT22;11275;52.488;13.462;2023-03-20T06:34:58;12.60;99.90
22212;DHT22;11275;52.488;13.462;2023-03-20T06:37:23;12.70;99.90
22212;DHT22;11275;52.488;13.462;2023-03-20T06:39:49;12.70;99.90
22212;DHT22;11275;52.488;13.462;2023-03-20T06:42:15;12.70;99.90
22212;DHT22;11275;52.488;13.462;2023-03-20T06:44:41;12.80;99.90
22212;DHT22;11275;52.488;13.462;2023-03-20T06:47:07;12.70;99.90
22212;DHT22;11275;52.488;13.462;2023-03-20T06:49:32;12.60;99.90
22212;DHT22;11275;52.488;13.462;2023-03-20T06:51:58;12.70;99.90
22212;DHT22;11275;52.488;13.462;2023-03-20T06:54:24;12.70;99.90
22212;DHT22;11275;52.488;13.462;2023-03-20T06:56:49;12.70;99.90
22212;DHT22;11275;52.488;13.462;2023-03-20T06:59:15;12.50;99.90
22212;DHT22;11275;52.488;13.462;2023-03-20T07:01:41;12.40;99.90
22212;DHT22;11275;52.488;13.462;2023-03-20T07:04:06;12.40;99.90
22212;DHT22;11275;52.488;13.462;2023-03-20T07:06:32;12.40;99.90
22212;DHT22;11275;52.488;13.462;2023-03-20T07:08:58;12.40;99.90
22212;DHT22;11275;52.488;13.462;2023-03-20T07:11:23;12.30;99.90
22212;DHT22;11275;52.488;13.462;2023-03-20T07:13:49;12.20;99.90
22212;DHT22;11275;52.488;13.462;2023-03-20T07:16:14;12.30;99.90
22212;DHT22;11275;52.488;13.462;2023-03-20T07:18:40;12.30;99.90
22212;DHT22;11275;52.488;13.462;2023-03-20T07:21:06;12.40;99.90
22212;DHT22;11275;52.488;13.462;2023-03-20T07:23:32;12.40;99.90
22212;DHT22;11275;52.488;13.462;2023-03-20T07:26:01;12.40;99.90
22212;DHT22;11275;52.488;13.462;2023-03-20T07:28:27;12.40;99.90
22212;DHT22;11275;52.488;13.462;2023-03-20T07:30:53;12.40;99.90
22212;DHT22;11275;52.488;13.462;2023-03-20T07:33:19;12.50;99.90
22212;DHT22;11275;52.488;13.462;2023-03-20T07:35:45;12.50;99.90
22212;DHT22;11275;52.488;13.462;2023-03-20T07:38:10;12.40;99.90
22212;DHT22;11275;52.488;13.462;2023-03-20T07:40:36;12.40;99.90
22212;DHT22;11275;52.488;13.462;2023-03-20T07:43:02;12.30;99.90
22212;DHT22;11275;52.488;13.462;2023-03-20T07:45:27;12.20;99.90
22212;DHT22;11275;52.488;13.462;2023-03-20T07:47:53;12.20;99.90
22212;DHT22;11275;52.488;13.462;2023-03-20T07:50:18;12.10;99.90
22212;DHT22;11275;52.488;13.462;2023-03-20T07:52:47;12.10;99.90
22212;DHT22;11275;52.488;13.462;2023-03-20T07:55:13;12.00;99.90
22212;DHT22;11275;52.488;13.462;2023-03-20T07:57:39;12.10;99.90
22212;DHT22;11275;52.488;13.462;2023-03-20T08:00:04;12.20;99.90
22212;DHT22;11275;52.488;13.462;2023-03-20T08:02:30;12.20;99.90
22212;DHT22;11275;52.488;13.462;2023-03-20T08:04:56;12.20;99.90
22212;DHT22;11275;52.488;13.462;2023-03-20T08:07:21;12.30;99.90
22212;DHT22;11275;52.488;13.462;2023-03-20T08:09:46;12.20;99.90
22212;DHT22;11275;52.488;13.462;2023-03-20T08:12:12;12.30;99.90
22212;DHT22;11275;52.488;13.462;2023-03-20T08:14:37;12.40;99.90
22212;DHT22;11275;52.488;13.462;2023-03-20T08:17:04;12.50;99.90
22212;DHT22;11275;52.488;13.462;2023-03-20T08:19:30;12.50;99.90
22212;DHT22;11275;52.488;13.462;2023-03-20T08:21:55;12.50;99.90
22212;DHT22;11275;52.488;13.462;2023-03-20T08:24:21;12.50;99.90
22212;DHT22;11275;52.488;13.462;2023-03-20T08:26:46;12.50;99.90
22212;DHT22;11275;52.488;13.462;2023-03-20T08:29:12;12.60;99.90
22212;DHT22;11275;52.488;13.462;2023-03-20T08:31:38;12.60;99.90
22212;DHT22;11275;52.488;13.462;2023-03-20T08:34:04;12.60;99.90
22212;DHT22;11275;52.488;13.462;2023-03-20T08:36:30;12.40;99.90
22212;DHT22;11275;52.488;13.462;2023-03-20T08:38:55;12.40;99.90
22212;DHT22;11275;52.488;13.462;2023-03-20T08:41:21;12.40;99.90
22212;DHT22;11275;52.488;13.462;2023-03-20T08:43:46;12.30;99.90
22212;DHT22;11275;52.488;13.462;2023-03-20T08:46:12;12.40;99.90
22212;DHT22;11275;52.488;13.462;2023-03-20T08:48:37;12.40;99.90
22212;DHT22;11275;52.488;13.462;2023-03-20T08:51:03;12.50;99.90
22212;DHT22;11275;52.488;13.462;2023-03-20T08:53:29;12.60;99.90
22212;DHT22;11275;52.488;13.462;2023-03-20T08:55:55;12.60;99.90
22212;DHT22;11275;52.488;13.462;2023-03-20T08:58:21;12.60;99.90
22212;DHT22;11275;52.488;13.462;2023-03-20T09:00:47;12.70;99.90
22212;DHT22;11275;52.488;13.462;2023-03-20T09:03:13;12.80;99.90
22212;DHT22;11275;52.488;13.462;2023-03-20T09:05:39;12.90;99.90
22212;DHT22;11275;52.488;13.462;2023-03-20T09:08:05;12.90;99.90
22212;DHT22;11275;52.488;13.462;2023-03-20T09:10:31;13.00;99.90
22212;DHT22;11275;52.488;13.462;2023-03-20T09:12:57;13.10;99.90
22212;DHT22;11275;52.488;13.462;2023-03-20T09:15:22;13.10;99.90
22212;DHT22;11275;52.488;13.462;2023-03-20T09:17:48;13.10;99.90
22212;DHT22;11275;52.488;13.462;2023-03-20T09:20:13;13.30;99.90
22212;DHT22;11275;52.488;13.462;2023-03-20T09:22:39;13.30;99.90
22212;DHT22;11275;52.488;13.462;2023-03-20T09:25:06;13.40;99.90
22212;DHT22;11275;52.488;13.462;2023-03-20T09:27:32;13.40;99.90
22212;DHT22;11275;52.488;13.462;2023-03-20T09:29:58;13.40;99.90
22212;DHT22;11275;52.488;13.462;2023-03-20T09:32:23;13.50;99.90
22212;DHT22;11275;52.488;13.462;2023-03-20T09:34:49;13.50;99.90
22212;DHT22;11275;52.488;13.462;2023-03-20T09:37:14;13.50;99.90
22212;DHT22;11275;52.488;13.462;2023-03-20T09:39:40;13.70;99.90
22212;DHT22;11275;52.488;13.462;2023-03-20T09:47:37;13.50;99.90
22212;DHT22;11275;52.488;13.462;2023-03-20T09:50:47;13.40;99.90
22212;DHT22;11275;52.488;13.462;2023-03-20T09:53:15;13.60;99.90
22212;DHT22;11275;52.488;13.462;2023-03-20T09:55:42;13.80;99.90
22212;DHT22;11275;52.488;13.462;2023-03-20T10:00:37;13.80;99.90
22212;DHT22;11275;52.488;13.462;2023-03-20T10:03:16;13.80;99.90
22212;DHT22;11275;52.488;13.462;2023-03-20T10:05:44;13.80;99.90
22212;DHT22;11275;52.488;13.462;2023-03-20T10:08:13;13.70;99.90
22212;DHT22;11275;52.488;13.462;2023-03-20T10:10:51;13.70;99.90
22212;DHT22;11275;52.488;13.462;2023-03-20T10:13:25;13.60;99.90
22212;DHT22;11275;52.488;13.462;2023-03-20T10:15:59;13.60;99.90
22212;DHT22;11275;52.488;13.462;2023-03-20T10:18:26;13.60;99.90
22212;DHT22;11275;52.488;13.462;2023-03-20T10:20:53;13.50;99.90
22212;DHT22;11275;52.488;13.462;2023-03-20T10:25:55;13.60;99.90
22212;DHT22;11275;52.488;13.462;2023-03-20T10:36:14;13.50;99.90
22212;DHT22;11275;52.488;13.462;2023-03-20T10:41:17;13.70;99.90
22212;DHT22;11275;52.488;13.462;2023-03-20T10:43:44;13.70;99.90
22212;DHT22;11275;52.488;13.462;2023-03-20T10:46:16;13.60;99.90
22212;DHT22;11275;52.488;13.462;2023-03-20T10:48:44;13.50;99.90
22212;DHT22;11275;52.488;13.462;2023-03-20T10:51:19;13.60;99.90
22212;DHT22;11275;52.488;13.462;2023-03-20T10:53:47;13.60;99.90
22212;DHT22;11275;52.488;13.462;2023-03-20T10:56:22;13.70;99.90
22212;DHT22;11275;52.488;13.462;2023-03-20T10:58:53;13.60;99.90
22212;DHT22;11275;52.488;13.462;2023-03-20T11:01:20;13.60;99.90
22212;DHT22;11275;52.488;13.462;2023-03-20T11:03:45;13.60;99.90
22212;DHT22;11275;52.488;13.462;2023-03-20T11:06:13;13.70;99.90
22212;DHT22;11275;52.488;13.462;2023-03-20T11:08:40;13.60;99.90
22212;DHT22;11275;52.488;13.462;2023-03-20T11:11:06;13.60;99.90
22212;DHT22;11275;52.488;13.462;2023-03-20T11:13:33;13.40;99.90
22212;DHT22;11275;52.488;13.462;2023-03-20T11:18:33;13.30;99.90
22212;DHT22;11275;52.488;13.462;2023-03-20T11:21:00;13.20;99.90
22212;DHT22;11275;52.488;13.462;2023-03-20T11:23:26;13.20;99.90
22212;DHT22;11275;52.488;13.462;2023-03-20T11:26:00;13.50;99.90
22212;DHT22;11275;52.488;13.462;2023-03-20T11:28:31;13.60;99.90
22212;DHT22;11275;52.488;13.462;2023-03-20T11:30:58;13.60;99.90
22212;DHT22;11275;52.488;13.462;2023-03-20T11:33:25;13.80;99.90
22212;DHT22;11275;52.488;13.462;2023-03-20T11:35:55;14.00;99.90
22212;DHT22;11275;52.488;13.462;2023-03-20T11:38:20;14.00;99.90
22212;DHT22;11275;52.488;13.462;2023-03-20T11:40:46;14.00;99.90
22212;DHT22;11275;52.488;13.462;2023-03-20T11:43:14;14.00;99.90
22212;DHT22;11275;52.488;13.462;2023-03-20T11:45:43;14.00;99.90
22212;DHT22;11275;52.488;13.462;2023-03-20T11:48:17;14.00;99.90
22212;DHT22;11275;52.488;13.462;2023-03-20T11:50:47;14.00;99.90
22212;DHT22;11275;52.488;13.462;2023-03-20T11:55:45;14.40;99.90
22212;DHT22;11275;52.488;13.462;2023-03-20T11:58:21;14.30;99.90
22212;DHT22;11275;52.488;13.462;2023-03-20T12:00:47;14.30;99.90
22212;DHT22;11275;52.488;13.462;2023-03-20T12:05:59;14.00;99.90
22212;DHT22;11275;52.488;13.462;2023-03-20T12:08:25;14.00;99.90
22212;DHT22;11275;52.488;13.462;2023-03-20T12:10:56;13.80;99.90
22212;DHT22;11275;52.488;13.462;2023-03-20T12:13:24;13.70;99.90
22212;DHT22;11275;52.488;13.462;2023-03-20T12:15:53;13.70;99.90
22212;DHT22;11275;52.488;13.462;2023-03-20T12:18:33;13.80;99.90
22212;DHT22;11275;52.488;13.462;2023-03-20T12:21:07;13.90;99.90
22212;DHT22;11275;52.488;13.462;2023-03-20T12:23:36;13.90;99.90
22212;DHT22;11275;52.488;13.462;2023-03-20T12:26:04;14.00;99.90
22212;DHT22;11275;52.488;13.462;2023-03-20T12:28:33;13.90;99.90
22212;DHT22;11275;52.488;13.462;2023-03-20T12:36:17;14.10;99.90
22212;DHT22;11275;52.488;13.462;2023-03-20T12:38:49;14.10;99.90
22212;DHT22;11275;52.488;13.462;2023-03-20T12:41:18;14.10;99.90
22212;DHT22;11275;52.488;13.462;2023-03-20T12:46:46;14.20;99.90
22212;DHT22;11275;52.488;13.462;2023-03-20T12:49:23;14.10;99.90
22212;DHT22;11275;52.488;13.462;2023-03-20T12:51:54;14.00;99.90
22212;DHT22;11275;52.488;13.462;2023-03-20T12:59:40;14.00;99.90
22212;DHT22;11275;52.488;13.462;2023-03-20T13:04:42;14.20;99.90
22212;DHT22;11275;52.488;13.462;2023-03-20T13:14:47;14.10;99.90
22212;DHT22;11275;52.488;13.462;2023-03-20T13:22:25;14.00;99.90
22212;DHT22;11275;52.488;13.462;2023-03-20T13:25:00;13.80;99.90
22212;DHT22;11275;52.488;13.462;2023-03-20T13:27:41;13.80;99.90
22212;DHT22;11275;52.488;13.462;2023-03-20T13:30:26;13.80;99.90
22212;DHT22;11275;52.488;13.462;2023-03-20T13:32:59;13.70;99.90
22212;DHT22;11275;52.488;13.462;2023-03-20T13:37:58;13.90;99.90
22212;DHT22;11275;52.488;13.462;2023-03-20T13:45:27;13.90;99.90
22212;DHT22;11275;52.488;13.462;2023-03-20T13:47:53;14.00;99.90
22212;DHT22;11275;52.488;13.462;2023-03-20T14:03:43;14.40;99.90
22212;DHT22;11275;52.488;13.462;2023-03-20T14:06:43;14.40;99.90
22212;DHT22;11275;52.488;13.462;2023-03-20T14:09:01;14.30;99.90
22212;DHT22;11275;52.488;13.462;2023-03-20T14:11:27;14.20;99.90
22212;DHT22;11275;52.488;13.462;2023-03-20T14:14:16;14.10;99.90
22212;DHT22;11275;52.488;13.462;2023-03-20T14:16:43;14.20;99.90
22212;DHT22;11275;52.488;13.462;2023-03-20T14:21:40;13.90;99.90
22212;DHT22;11275;52.488;13.462;2023-03-20T14:24:09;13.90;99.90
22212;DHT22;11275;52.488;13.462;2023-03-20T14:26:37;13.90;99.90
22212;DHT22;11275;52.488;13.462;2023-03-20T14:31:35;13.80;99.90
22212;DHT22;11275;52.488;13.462;2023-03-20T14:34:16;13.70;99.90
22212;DHT22;11275;52.488;13.462;2023-03-20T14:36:56;13.60;99.90
22212;DHT22;11275;52.488;13.462;2023-03-20T14:39:28;13.50;99.90
22212;DHT22;11275;52.488;13.462;2023-03-20T14:47:45;13.40;99.90
22212;DHT22;11275;52.488;13.462;2023-03-20T14:52:31;13.40;99.90
22212;DHT22;11275;52.488;13.462;2023-03-20T14:55:12;13.30;99.90
22212;DHT22;11275;52.488;13.462;2023-03-20T14:57:38;13.20;99.90
22212;DHT22;11275;52.488;13.462;2023-03-20T15:00:03;13.20;99.90
22212;DHT22;11275;52.488;13.462;2023-03-20T15:02:33;13.30;99.90
22212;DHT22;11275;52.488;13.462;2023-03-20T15:04:59;13.40;99.90
22212;DHT22;11275;52.488;13.462;2023-03-20T15:07:29;13.40;99.90
22212;DHT22;11275;52.488;13.462;2023-03-20T15:09:56;13.40;99.90
22212;DHT22;11275;52.488;13.462;2023-03-20T15:12:24;13.30;99.90
22212;DHT22;11275;52.488;13.462;2023-03-20T15:14:55;13.40;99.90
22212;DHT22;11275;52.488;13.462;2023-03-20T15:17:24;13.40;99.90
22212;DHT22;11275;52.488;13.462;2023-03-20T15:20:05;13.40;99.90
22212;DHT22;11275;52.488;13.462;2023-03-20T15:22:31;13.50;99.90
22212;DHT22;11275;52.488;13.462;2023-03-20T15:24:57;13.50;99.90
22212;DHT22;11275;52.488;13.462;2023-03-20T15:27:24;13.40;99.90
22212;DHT22;11275;52.488;13.462;2023-03-20T15:29:53;13.50;99.90
22212;DHT22;11275;52.488;13.462;2023-03-20T15:32:20;13.60;99.90
22212;DHT22;11275;52.488;13.462;2023-03-20T15:34:46;13.70;99.90
22212;DHT22;11275;52.488;13.462;2023-03-20T15:37:15;13.70;99.90
22212;DHT22;11275;52.488;13.462;2023-03-20T15:39:42;13.70;99.90
22212;DHT22;11275;52.488;13.462;2023-03-20T15:42:09;13.70;99.90
22212;DHT22;11275;52.488;13.462;2023-03-20T15:44:36;13.80;99.90
22212;DHT22;11275;52.488;13.462;2023-03-20T15:47:06;13.70;99.90
22212;DHT22;11275;52.488;13.462;2023-03-20T15:49:37;13.70;99.90
22212;DHT22;11275;52.488;13.462;2023-03-20T15:52:14;13.70;99.90
22212;DHT22;11275;52.488;13.462;2023-03-20T15:54:42;13.50;99.90
22212;DHT22;11275;52.488;13.462;2023-03-20T15:57:08;13.60;99.90
22212;DHT22;11275;52.488;13.462;2023-03-20T15:59:37;13.60;99.90
22212;DHT22;11275;52.488;13.462;2023-03-20T16:02:02;13.60;99.90
22212;DHT22;11275;52.488;13.462;2023-03-20T16:04:28;13.60;99.90
22212;DHT22;11275;52.488;13.462;2023-03-20T16:06:55;13.60;99.90
22212;DHT22;11275;52.488;13.462;2023-03-20T16:09:21;13.50;99.90
22212;DHT22;11275;52.488;13.462;2023-03-20T16:11:48;13.50;99.90
22212;DHT22;11275;52.488;13.462;2023-03-20T16:14:20;13.60;99.90
22212;DHT22;11275;52.488;13.462;2023-03-20T16:16:46;13.60;99.90
22212;DHT22;11275;52.488;13.462;2023-03-20T16:19:12;13.50;99.90
22212;DHT22;11275;52.488;13.462;2023-03-20T16:21:40;13.60;99.90
22212;DHT22;11275;52.488;13.462;2023-03-20T16:24:08;13.50;99.90
22212;DHT22;11275;52.488;13.462;2023-03-20T16:26:36;13.50;99.90
22212;DHT22;11275;52.488;13.462;2023-03-20T16:29:02;13.50;99.90
22212;DHT22;11275;52.488;13.462;2023-03-20T16:31:30;13.60;99.90
22212;DHT22;11275;52.488;13.462;2023-03-20T16:33:57;13.60;99.90
22212;DHT22;11275;52.488;13.462;2023-03-20T16:36:28;13.60;99.90
22212;DHT22;11275;52.488;13.462;2023-03-20T16:38:55;13.40;99.90
22212;DHT22;11275;52.488;13.462;2023-03-20T16:41:24;13.30;99.90
22212;DHT22;11275;52.488;13.462;2023-03-20T16:43:51;13.30;99.90
22212;DHT22;11275;52.488;13.462;2023-03-20T16:46:19;13.20;99.90
22212;DHT22;11275;52.488;13.462;2023-03-20T16:48:45;13.20;99.90
22212;DHT22;11275;52.488;13.462;2023-03-20T16:51:15;13.20;99.90
22212;DHT22;11275;52.488;13.462;2023-03-20T16:53:46;13.20;99.90
22212;DHT22;11275;52.488;13.462;2023-03-20T16:56:23;13.10;99.90
22212;DHT22;11275;52.488;13.462;2023-03-20T16:58:49;13.10;99.90
22212;DHT22;11275;52.488;13.462;2023-03-20T17:01:19;13.00;99.90
22212;DHT22;11275;52.488;13.462;2023-03-20T17:03:47;13.00;99.90
22212;DHT22;11275;52.488;13.462;2023-03-20T17:08:51;13.00;99.90
22212;DHT22;11275;52.488;13.462;2023-03-20T17:11:30;12.90;99.90
22212;DHT22;11275;52.488;13.462;2023-03-20T17:13:57;12.90;99.90
22212;DHT22;11275;52.488;13.462;2023-03-20T17:16:22;12.90;99.90
22212;DHT22;11275;52.488;13.462;2023-03-20T17:19:01;12.80;99.90
22212;DHT22;11275;52.488;13.462;2023-03-20T17:21:28;12.80;99.90
22212;DHT22;11275;52.488;13.462;2023-03-20T17:23:54;12.80;99.90
22212;DHT22;11275;52.488;13.462;2023-03-20T17:26:19;12.80;99.90
22212;DHT22;11275;52.488;13.462;2023-03-20T17:28:45;12.70;99.90
22212;DHT22;11275;52.488;13.462;2023-03-20T17:31:14;12.70;99.90
22212;DHT22;11275;52.488;13.462;2023-03-20T17:33:40;12.70;99.90